Capitol Logistics 7430

Operating for MZN



KILN
Wilmington Air Park
Wilmington, Ohio
KJFK
John F Kennedy International Airport
New York, New York

Activity Log

Date Flight Route Aircraft Duration
No Flights Yet

Route Details

Aircraft Information
Primary: Boeing 767-300BDSF
Backup: Airbus A300-600F
Route Data
Distance: 466nm
Duration: 1h 12m
Recm'd Route: APE PSB LVZ LENDY6
Origin Wx: KILN 020654Z AUTO 36003KT 6SM HZ CLR 16/13 A3007 RMK AO2 SLP179 T01560128 $
Dest. Wx: KJFK 020651Z 26010KT 10SM SCT022 BKN043 OVC160 21/18 A2983 RMK AO2 SLP102 T02060183
Notes: